To NAV CANADA Home Page Login to a new session Search on AWWS site Feedback and Comments Disclaimer Vers la page française équivalente Tips FAQ What's new on the site To the Forecasts and Observations / NOTAM section To "File a Flight Plan" website Publications and other links Update of the User's profile FIC Telephone Numbers My Weather Data Folder Route Weather Data Regional Weather Data Local Weather Data To the Forecasts and Observations / NOTAM section
Request Generated 07/25/2016 at 11:55:45 UTC . Weather information available at that time is displayed.

METAR/TAF

ABBOTSFORD/BC    

METAR CYXX 251100Z 00000KT 15SM FEW230 16/13 A3003 RMK CI1 SLP168=
METAR CYXX 251000Z 34002KT 15SM FEW230 16/13 A3002 RMK CI1 SLP167
DENSITY ALT 200FT=
METAR CYXX 250900Z 10003KT 020V110 15SM FEW230 16/13 A3002 RMK CI1 CI
TR SLP166 DENSITY ALT 200FT=

TAF CYXX 251138Z 2512/2612 VRB03KT P6SM FEW230
BECMG 2518/2520 22008KT
FM260600 23005KT P6SM SKC
RMK NXT FCST BY 251800Z=
Your time UTC time
Weather data provided by Environment Canada and NAV CANADA